Time;durP1;ratioP1;P1;durP2;ratioP2;P2;SDS_P1;SDS_P2;PMS_P1;PMS_P2;Temp;Humidity;BMP_temperature;BMP_pressure;BME280_temperature;BME280_humidity;BME280_pressure;Samples;Min_cycle;Max_cycle;Signal;HPM_P1;HPM_P2
2021/09/09 00:00:14;;;;;;;10.73;8.07;;;19.10;71.50;;;;;;5053598;28;20039;-77
2021/09/09 00:02:40;;;;;;;13.48;7.72;;;19.10;70.90;;;;;;5053767;28;20036;-77
2021/09/09 00:05:07;;;;;;;11.32;7.75;;;19.10;70.70;;;;;;5053574;28;20383;-76
2021/09/09 00:07:32;;;;;;;11.13;7.60;;;19.10;70.60;;;;;;5053171;28;20049;-77
2021/09/09 00:09:59;;;;;;;9.70;7.35;;;19.20;70.50;;;;;;5053377;28;20071;-77
2021/09/09 00:12:25;;;;;;;15.82;8.57;;;19.20;70.40;;;;;;5053371;28;20070;-77
2021/09/09 00:14:51;;;;;;;12.52;7.35;;;19.20;70.40;;;;;;5053348;28;20029;-77
2021/09/09 00:17:16;;;;;;;11.70;8.23;;;19.20;70.20;;;;;;5053177;28;20035;-76
2021/09/09 00:19:42;;;;;;;12.45;7.97;;;19.20;70.10;;;;;;5053200;28;20025;-76
2021/09/09 00:22:08;;;;;;;12.35;9.00;;;19.30;70.10;;;;;;5053139;28;20028;-76
2021/09/09 00:24:33;;;;;;;12.68;8.38;;;19.30;70.10;;;;;;5053151;28;20086;-77
2021/09/09 00:26:59;;;;;;;14.32;8.48;;;19.20;69.90;;;;;;5052897;28;20029;-77
2021/09/09 00:29:25;;;;;;;13.00;8.18;;;19.20;69.90;;;;;;5053107;28;20017;-76
2021/09/09 00:31:51;;;;;;;14.23;8.05;;;19.20;70.00;;;;;;5052839;28;20048;-76
2021/09/09 00:34:16;;;;;;;13.20;8.55;;;19.10;70.30;;;;;;5053058;28;20036;-76
2021/09/09 00:36:42;;;;;;;9.82;7.70;;;19.10;70.30;;;;;;5053043;28;20540;-76
2021/09/09 00:39:07;;;;;;;12.05;7.47;;;19.10;70.20;;;;;;5052952;28;20026;-76
2021/09/09 00:41:33;;;;;;;12.13;8.40;;;19.20;70.20;;;;;;5052990;28;20150;-76
2021/09/09 00:43:59;;;;;;;12.30;8.13;;;19.20;70.00;;;;;;5052981;28;20032;-76
2021/09/09 00:46:25;;;;;;;11.35;7.90;;;19.10;69.80;;;;;;5052813;28;20026;-76
2021/09/09 00:48:51;;;;;;;11.77;8.35;;;19.10;69.40;;;;;;5052795;28;20029;-76
2021/09/09 00:51:17;;;;;;;10.95;7.65;;;19.00;69.50;;;;;;5053661;28;20435;-76
2021/09/09 00:53:43;;;;;;;10.65;7.88;;;19.10;69.40;;;;;;5057477;28;20029;-76
2021/09/09 00:56:11;;;;;;;13.52;8.57;;;19.10;69.40;;;;;;5053114;28;20072;-76
2021/09/09 00:58:42;;;;;;;14.05;8.68;;;19.00;69.70;;;;;;5053056;28;20021;-76
2021/09/09 01:01:08;;;;;;;14.98;8.45;;;19.00;69.90;;;;;;5053067;28;20052;-76
2021/09/09 01:03:34;;;;;;;9.52;7.18;;;19.00;70.20;;;;;;5052906;28;20029;-76
2021/09/09 01:06:00;;;;;;;10.52;7.55;;;18.90;70.30;;;;;;5052699;28;20032;-76
2021/09/09 01:08:25;;;;;;;11.60;7.72;;;18.90;70.20;;;;;;5052789;28;20029;-76
2021/09/09 01:10:51;;;;;;;13.40;8.85;;;18.90;70.40;;;;;;5052604;28;20041;-76
2021/09/09 01:13:16;;;;;;;10.98;8.63;;;18.90;70.60;;;;;;5052643;28;20380;-76
2021/09/09 01:15:44;;;;;;;10.35;7.95;;;18.80;71.00;;;;;;5052602;28;20039;-76
2021/09/09 01:18:13;;;;;;;12.13;8.73;;;18.70;71.20;;;;;;5052596;28;20017;-76
2021/09/09 01:20:40;;;;;;;12.27;8.18;;;18.70;71.60;;;;;;5052486;28;20095;-76
2021/09/09 01:23:06;;;;;;;15.13;8.15;;;18.60;71.90;;;;;;5052654;28;20491;-77
2021/09/09 01:25:32;;;;;;;16.45;8.48;;;18.50;72.20;;;;;;5052535;28;20037;-76
2021/09/09 01:27:58;;;;;;;12.02;7.93;;;18.50;72.30;;;;;;5052633;28;20086;-76
2021/09/09 01:30:24;;;;;;;12.50;8.60;;;18.50;72.50;;;;;;5052525;28;20537;-76
2021/09/09 01:32:50;;;;;;;9.68;7.78;;;18.50;72.50;;;;;;5052501;28;20044;-76
2021/09/09 01:35:15;;;;;;;16.05;8.63;;;18.50;72.60;;;;;;5052500;28;20045;-77
2021/09/09 01:37:41;;;;;;;15.40;9.57;;;18.50;72.70;;;;;;5051139;28;20029;-76
2021/09/09 01:40:07;;;;;;;11.23;8.27;;;18.50;72.50;;;;;;5052632;28;20110;-76
2021/09/09 01:42:33;;;;;;;12.50;9.20;;;18.50;72.30;;;;;;5053614;28;20033;-76
2021/09/09 01:44:59;;;;;;;9.20;7.63;;;18.50;72.20;;;;;;5054777;28;20021;-76
2021/09/09 01:47:24;;;;;;;13.20;8.40;;;18.50;72.00;;;;;;5056195;28;20036;-76
2021/09/09 01:49:51;;;;;;;11.57;7.78;;;18.50;71.80;;;;;;5055930;28;20093;-76
2021/09/09 01:52:17;;;;;;;9.15;7.63;;;18.50;71.70;;;;;;5056098;28;20087;-76
2021/09/09 01:54:42;;;;;;;14.93;8.43;;;18.60;71.60;;;;;;5055899;28;20090;-76
2021/09/09 01:57:08;;;;;;;13.15;8.10;;;18.60;71.40;;;;;;5055835;28;20040;-76
2021/09/09 01:59:34;;;;;;;10.07;7.55;;;18.60;71.30;;;;;;5055706;28;20526;-76
2021/09/09 02:01:59;;;;;;;13.82;8.35;;;18.60;71.30;;;;;;5055613;28;20035;-77
2021/09/09 02:04:28;;;;;;;11.82;8.18;;;18.60;71.40;;;;;;5055635;28;20025;-76
2021/09/09 02:06:54;;;;;;;15.13;10.18;;;18.60;71.40;;;;;;5055744;28;20074;-76
2021/09/09 02:09:19;;;;;;;14.85;9.93;;;18.50;71.50;;;;;;5055778;28;20029;-76
2021/09/09 02:11:45;;;;;;;14.48;10.05;;;18.50;71.70;;;;;;5055568;28;20041;-76
2021/09/09 02:14:10;;;;;;;20.42;9.75;;;18.50;71.60;;;;;;5055687;28;20021;-75
2021/09/09 02:16:36;;;;;;;15.88;10.43;;;18.50;71.70;;;;;;5055490;28;20465;-75
2021/09/09 02:19:02;;;;;;;18.88;10.32;;;18.50;71.60;;;;;;5055562;28;20021;-75
2021/09/09 02:21:27;;;;;;;16.10;10.65;;;18.40;71.80;;;;;;5055484;28;20036;-74
2021/09/09 02:23:53;;;;;;;14.38;9.85;;;18.40;72.00;;;;;;5055412;28;20029;-75
2021/09/09 02:26:19;;;;;;;12.35;9.38;;;18.40;72.10;;;;;;5055334;28;20025;-75
2021/09/09 02:28:44;;;;;;;16.25;10.23;;;18.30;72.20;;;;;;5055176;28;20025;-74
2021/09/09 02:31:10;;;;;;;10.88;8.57;;;18.40;72.10;;;;;;5055448;28;20069;-75
2021/09/09 02:33:35;;;;;;;15.43;8.73;;;18.40;72.20;;;;;;5055171;28;20457;-74
2021/09/09 02:36:01;;;;;;;9.27;7.60;;;18.40;72.10;;;;;;5054940;28;20087;-74
2021/09/09 02:38:26;;;;;;;12.35;8.60;;;18.30;72.10;;;;;;5055061;28;20027;-74
2021/09/09 02:40:52;;;;;;;13.73;8.25;;;18.30;72.20;;;;;;5055008;28;20036;-75
2021/09/09 02:43:17;;;;;;;11.65;8.18;;;18.30;72.40;;;;;;5055071;28;20025;-75
2021/09/09 02:45:43;;;;;;;12.10;8.80;;;18.20;72.40;;;;;;5054689;28;20104;-75
2021/09/09 02:48:08;;;;;;;14.65;8.05;;;18.20;72.50;;;;;;5054870;28;20057;-74
2021/09/09 02:50:34;;;;;;;10.27;7.63;;;18.20;72.60;;;;;;5053509;28;20040;-74
2021/09/09 02:53:00;;;;;;;9.90;8.23;;;18.20;72.70;;;;;;5054869;28;20025;-74
2021/09/09 02:55:26;;;;;;;10.82;7.55;;;18.20;72.80;;;;;;5053562;28;20429;-74
2021/09/09 02:57:52;;;;;;;9.80;8.02;;;18.20;72.90;;;;;;5054690;28;20108;-74
2021/09/09 03:00:17;;;;;;;11.07;8.07;;;18.10;73.00;;;;;;5054622;28;20052;-74
2021/09/09 03:02:43;;;;;;;11.90;8.15;;;18.20;72.90;;;;;;5054587;28;20370;-76
2021/09/09 03:05:09;;;;;;;11.05;7.50;;;18.10;73.00;;;;;;5054319;28;20025;-73
2021/09/09 03:07:35;;;;;;;12.82;8.23;;;18.10;73.00;;;;;;5054195;28;20029;-74
2021/09/09 03:10:00;;;;;;;9.10;7.35;;;18.10;73.10;;;;;;5054200;28;20037;-73
2021/09/09 03:12:26;;;;;;;11.85;8.20;;;18.10;73.10;;;;;;5054414;28;20428;-77
2021/09/09 03:14:52;;;;;;;9.82;7.60;;;18.00;72.90;;;;;;5054520;28;20068;-73
2021/09/09 03:17:17;;;;;;;10.55;7.82;;;18.00;73.10;;;;;;5054184;28;20033;-73
2021/09/09 03:19:43;;;;;;;10.95;7.80;;;17.90;73.30;;;;;;5054293;28;20555;-73
2021/09/09 03:22:08;;;;;;;8.48;7.57;;;18.00;73.20;;;;;;5054277;28;20146;-73
2021/09/09 03:24:34;;;;;;;9.68;7.53;;;18.00;73.00;;;;;;5054136;28;20096;-73
2021/09/09 03:27:00;;;;;;;10.88;7.55;;;18.00;72.80;;;;;;5054127;28;20033;-73
2021/09/09 03:29:25;;;;;;;9.50;7.35;;;18.00;72.70;;;;;;5054085;28;20025;-76
2021/09/09 03:31:51;;;;;;;9.40;7.20;;;18.10;72.60;;;;;;5052710;28;20543;-74
2021/09/09 03:34:16;;;;;;;10.70;7.20;;;18.10;72.30;;;;;;5053895;28;20100;-74
2021/09/09 03:36:42;;;;;;;9.23;7.47;;;18.20;72.10;;;;;;5053914;28;20116;-73
2021/09/09 03:39:07;;;;;;;10.15;7.80;;;18.10;71.90;;;;;;5054031;28;20044;-74
2021/09/09 03:41:33;;;;;;;13.27;7.65;;;18.10;72.10;;;;;;5054163;28;20079;-74
2021/09/09 03:43:59;;;;;;;9.68;7.97;;;18.10;72.00;;;;;;5054142;28;20384;-74
2021/09/09 03:46:24;;;;;;;10.15;7.18;;;18.10;72.00;;;;;;5055050;28;20025;-73
2021/09/09 03:48:50;;;;;;;11.27;7.72;;;18.10;71.90;;;;;;5057501;28;20503;-77
2021/09/09 03:51:15;;;;;;;8.38;7.13;;;18.10;71.50;;;;;;5057671;28;20029;-77
2021/09/09 03:53:41;;;;;;;10.43;7.28;;;18.10;71.60;;;;;;5054006;28;20025;-73
2021/09/09 03:56:06;;;;;;;9.52;7.40;;;18.20;71.40;;;;;;5053700;28;20024;-74
2021/09/09 03:58:32;;;;;;;11.15;6.70;;;18.20;71.30;;;;;;5053583;28;20029;-74
2021/09/09 04:00:58;;;;;;;8.45;7.03;;;18.20;71.30;;;;;;5053469;28;20473;-74
2021/09/09 04:03:23;;;;;;;10.57;6.88;;;18.10;71.20;;;;;;5053502;28;20380;-74
2021/09/09 04:05:49;;;;;;;10.15;6.85;;;18.10;71.10;;;;;;5053533;28;20385;-74
2021/09/09 04:08:14;;;;;;;8.15;6.55;;;18.20;70.90;;;;;;5053159;28;20388;-75
2021/09/09 04:10:40;;;;;;;10.05;7.45;;;18.20;70.70;;;;;;5053423;28;20535;-75
2021/09/09 04:13:05;;;;;;;11.35;7.65;;;18.20;70.50;;;;;;5053391;28;20021;-75
2021/09/09 04:15:32;;;;;;;10.55;7.05;;;18.20;70.30;;;;;;5053258;28;20148;-75
2021/09/09 04:17:58;;;;;;;12.13;7.18;;;18.20;70.20;;;;;;5053412;28;20023;-75
2021/09/09 04:20:23;;;;;;;10.30;6.88;;;18.20;70.00;;;;;;5053479;28;20100;-76
2021/09/09 04:22:49;;;;;;;10.48;7.10;;;18.30;69.80;;;;;;5053278;28;20039;-76
2021/09/09 04:25:14;;;;;;;11.63;7.05;;;18.30;69.60;;;;;;5053165;28;20381;-76
2021/09/09 04:27:40;;;;;;;8.23;6.82;;;18.30;69.20;;;;;;5053779;28;20033;-75
2021/09/09 04:30:06;;;;;;;10.13;7.13;;;18.40;68.90;;;;;;5055398;28;20089;-76
2021/09/09 04:32:32;;;;;;;10.43;6.63;;;18.40;68.40;;;;;;5054014;28;20029;-75
2021/09/09 04:34:57;;;;;;;10.15;7.45;;;18.40;68.20;;;;;;5052895;28;20091;-75
2021/09/09 04:37:23;;;;;;;8.35;6.60;;;18.40;68.00;;;;;;5052956;28;20036;-75
2021/09/09 04:39:49;;;;;;;9.82;6.55;;;18.50;68.10;;;;;;5055020;28;20029;-76
2021/09/09 04:42:14;;;;;;;7.38;5.97;;;18.50;67.80;;;;;;5054053;28;20393;-75
2021/09/09 04:44:40;;;;;;;9.35;6.47;;;18.60;67.40;;;;;;5051660;28;20032;-75
2021/09/09 04:47:06;;;;;;;9.18;7.18;;;18.60;67.20;;;;;;5053026;28;20404;-76
2021/09/09 04:49:31;;;;;;;8.73;6.43;;;18.60;67.20;;;;;;5052854;28;20025;-75
2021/09/09 04:51:57;;;;;;;11.73;6.68;;;18.60;68.20;;;;;;5052772;28;20045;-75
2021/09/09 04:54:22;;;;;;;31.98;9.85;;;18.70;68.30;;;;;;5052835;28;20029;-75
2021/09/09 04:56:48;;;;;;;11.80;7.47;;;18.80;70.50;;;;;;5052700;28;20035;-76
2021/09/09 04:59:13;;;;;;;14.65;7.93;;;18.90;69.00;;;;;;5051380;28;20017;-75
2021/09/09 05:01:39;;;;;;;12.65;7.07;;;19.00;68.80;;;;;;5052669;28;20025;-74
2021/09/09 05:04:04;;;;;;;10.85;6.70;;;19.10;67.90;;;;;;5052747;28;20029;-76
2021/09/09 05:06:30;;;;;;;18.42;7.25;;;19.20;66.90;;;;;;5052773;28;20107;-74
2021/09/09 05:08:56;;;;;;;10.23;7.10;;;19.30;66.20;;;;;;5052676;28;20059;-75
2021/09/09 05:11:21;;;;;;;9.60;6.32;;;19.40;65.80;;;;;;5052568;28;20029;-75
2021/09/09 05:13:47;;;;;;;11.88;6.57;;;19.40;64.80;;;;;;5052717;28;20029;-74
2021/09/09 05:16:13;;;;;;;11.52;6.35;;;19.50;65.40;;;;;;5052756;28;20017;-77
2021/09/09 05:18:38;;;;;;;10.20;6.95;;;19.50;64.50;;;;;;5052866;28;20358;-74
2021/09/09 05:21:04;;;;;;;10.48;6.20;;;19.60;63.60;;;;;;5056227;28;20473;-74
2021/09/09 05:23:29;;;;;;;8.27;6.30;;;19.60;63.10;;;;;;5055925;28;20021;-74
2021/09/09 05:25:55;;;;;;;7.75;6.40;;;19.50;63.30;;;;;;5056446;28;20115;-74
2021/09/09 05:28:21;;;;;;;6.82;5.70;;;19.50;63.40;;;;;;5056409;28;20037;-74
2021/09/09 05:30:46;;;;;;;11.55;8.23;;;19.50;63.20;;;;;;5056202;28;20071;-74
2021/09/09 05:33:13;;;;;;;13.40;7.28;;;19.50;63.20;;;;;;5056195;28;20029;-73
2021/09/09 05:35:40;;;;;;;9.63;7.10;;;19.60;63.10;;;;;;5055981;28;20052;-74
2021/09/09 05:38:06;;;;;;;7.43;6.22;;;19.60;62.60;;;;;;5054900;28;20021;-75
2021/09/09 05:40:32;;;;;;;9.60;6.50;;;19.60;62.30;;;;;;5056106;28;20025;-76
2021/09/09 05:42:57;;;;;;;7.20;6.38;;;19.70;62.50;;;;;;5056743;28;20031;-75
2021/09/09 05:45:23;;;;;;;10.20;7.22;;;19.80;62.00;;;;;;5057392;28;20023;-75
2021/09/09 05:47:49;;;;;;;11.38;6.70;;;19.90;61.90;;;;;;5056169;28;20444;-76
2021/09/09 05:50:17;;;;;;;8.70;5.95;;;20.00;61.50;;;;;;5056346;28;20119;-76
2021/09/09 05:52:42;;;;;;;7.43;6.07;;;20.00;61.40;;;;;;5055911;28;20028;-75
2021/09/09 05:55:08;;;;;;;8.95;6.72;;;20.10;61.50;;;;;;5055755;28;20100;-76
2021/09/09 05:57:34;;;;;;;10.82;6.95;;;20.20;61.60;;;;;;5055761;28;20021;-76
2021/09/09 05:59:59;;;;;;;11.00;6.72;;;20.30;61.50;;;;;;5055655;28;20036;-75
2021/09/09 06:02:27;;;;;;;11.90;7.47;;;20.30;60.90;;;;;;5055567;28;20025;-76
2021/09/09 06:04:55;;;;;;;9.38;6.50;;;20.40;61.00;;;;;;5055747;28;20108;-75
2021/09/09 06:07:21;;;;;;;8.88;6.32;;;20.50;60.30;;;;;;5055540;28;20036;-74
2021/09/09 06:09:47;;;;;;;9.07;6.10;;;20.60;58.80;;;;;;5054121;28;20033;-75
2021/09/09 06:12:13;;;;;;;7.82;5.97;;;20.70;58.60;;;;;;5055341;28;20028;-75
2021/09/09 06:14:38;;;;;;;9.48;6.32;;;20.80;58.10;;;;;;5055142;28;20049;-75
2021/09/09 06:17:04;;;;;;;9.38;6.53;;;20.90;57.60;;;;;;5055392;28;20029;-75
2021/09/09 06:19:30;;;;;;;9.48;6.05;;;21.10;57.50;;;;;;5053836;28;20052;-76
2021/09/09 06:21:55;;;;;;;7.00;6.20;;;21.20;56.70;;;;;;5054935;28;20021;-75
2021/09/09 06:24:21;;;;;;;14.20;6.53;;;21.20;56.50;;;;;;5055114;28;20078;-74
2021/09/09 06:26:47;;;;;;;15.75;6.13;;;21.30;57.00;;;;;;5055072;28;20529;-75
2021/09/09 06:29:12;;;;;;;8.90;5.95;;;21.30;56.60;;;;;;5054904;28;20056;-75
2021/09/09 06:31:38;;;;;;;12.93;6.10;;;21.30;55.90;;;;;;5054295;28;20540;-75
2021/09/09 06:34:03;;;;;;;8.30;6.97;;;21.40;56.20;;;;;;5053418;28;20017;-75
2021/09/09 06:36:29;;;;;;;7.97;6.00;;;21.50;55.90;;;;;;5054755;28;20478;-75
2021/09/09 06:38:54;;;;;;;10.55;6.90;;;21.50;55.10;;;;;;5054836;28;20052;-74
2021/09/09 06:41:20;;;;;;;8.57;6.35;;;21.50;55.30;;;;;;5054903;28;20037;-74
2021/09/09 06:43:45;;;;;;;9.68;6.20;;;21.60;55.30;;;;;;5054702;28;20021;-74
2021/09/09 06:46:11;;;;;;;10.77;6.95;;;21.50;54.90;;;;;;5054922;28;20037;-75
2021/09/09 06:48:37;;;;;;;7.30;5.32;;;21.60;55.10;;;;;;5054800;28;20108;-74
2021/09/09 06:51:03;;;;;;;7.28;5.38;;;21.60;54.60;;;;;;5055012;28;20036;-74
2021/09/09 06:53:30;;;;;;;8.73;5.68;;;21.80;55.00;;;;;;5059139;28;20024;-74
2021/09/09 06:55:56;;;;;;;8.70;5.78;;;21.90;55.80;;;;;;5055133;28;20040;-75
2021/09/09 06:58:21;;;;;;;9.02;5.70;;;22.10;56.10;;;;;;5053686;28;20029;-77
2021/09/09 07:00:47;;;;;;;9.27;5.35;;;22.10;51.50;;;;;;5054677;28;20436;-74
2021/09/09 07:03:13;;;;;;;7.93;5.70;;;22.10;51.60;;;;;;5053289;28;20025;-74
2021/09/09 07:05:38;;;;;;;15.27;5.60;;;22.10;52.20;;;;;;5054291;28;20025;-74
2021/09/09 07:08:04;;;;;;;7.47;5.10;;;22.10;51.20;;;;;;5054466;28;20025;-75
2021/09/09 07:10:29;;;;;;;9.30;5.70;;;22.10;51.80;;;;;;5062818;28;20068;-75
2021/09/09 07:12:55;;;;;;;9.35;5.85;;;22.00;50.90;;;;;;5060400;28;20029;-75
2021/09/09 07:15:20;;;;;;;12.60;6.40;;;22.00;51.70;;;;;;5054212;28;20028;-74
2021/09/09 07:17:46;;;;;;;8.38;5.50;;;21.90;51.80;;;;;;5054320;28;20412;-76
2021/09/09 07:20:12;;;;;;;7.63;5.22;;;21.90;51.40;;;;;;5054134;28;20032;-76
2021/09/09 07:22:38;;;;;;;9.40;5.60;;;21.90;50.70;;;;;;5054073;28;20028;-75
2021/09/09 07:25:04;;;;;;;11.63;5.82;;;21.80;51.00;;;;;;5054165;28;20028;-75
2021/09/09 07:27:30;;;;;;;8.20;5.95;;;21.70;51.60;;;;;;5053860;28;20032;-75
2021/09/09 07:29:56;;;;;;;12.30;5.40;;;21.60;51.70;;;;;;5054085;28;20020;-75
2021/09/09 07:32:23;;;;;;;9.63;6.32;;;21.60;51.20;;;;;;5054020;28;20064;-75
2021/09/09 07:34:49;;;;;;;6.13;5.50;;;21.50;50.90;;;;;;5053841;28;20041;-75
2021/09/09 07:37:15;;;;;;;7.68;6.03;;;21.50;50.80;;;;;;5053820;28;20103;-76
2021/09/09 07:39:40;;;;;;;11.25;5.60;;;21.40;51.10;;;;;;5053892;28;20071;-75
2021/09/09 07:42:06;;;;;;;7.40;5.13;;;21.30;51.00;;;;;;5053096;28;20035;-76
2021/09/09 07:44:32;;;;;;;9.80;4.82;;;21.30;50.70;;;;;;5053671;28;20439;-76
2021/09/09 07:46:57;;;;;;;6.95;5.03;;;21.30;50.40;;;;;;5052189;28;20526;-74
2021/09/09 07:49:23;;;;;;;7.50;5.13;;;21.30;50.30;;;;;;5053579;28;20033;-75
2021/09/09 07:51:49;;;;;;;9.30;5.07;;;21.20;50.40;;;;;;5053371;28;20116;-74
2021/09/09 07:54:14;;;;;;;6.15;5.03;;;21.30;49.40;;;;;;5053372;28;20025;-74
2021/09/09 07:56:40;;;;;;;7.65;4.60;;;21.30;49.70;;;;;;5053279;28;20088;-74
2021/09/09 07:59:06;;;;;;;6.35;4.72;;;21.30;49.10;;;;;;5053462;28;20025;-75
2021/09/09 08:01:31;;;;;;;6.85;4.88;;;21.40;49.30;;;;;;5053359;28;20060;-75
2021/09/09 08:03:57;;;;;;;7.85;5.20;;;21.40;49.80;;;;;;5053363;28;20021;-74
2021/09/09 08:06:22;;;;;;;6.88;4.47;;;21.40;49.90;;;;;;5053397;28;20464;-74
2021/09/09 08:08:48;;;;;;;9.00;5.28;;;21.40;48.20;;;;;;5053067;28;20059;-75
2021/09/09 08:11:13;;;;;;;9.02;4.47;;;21.40;48.70;;;;;;5053120;28;20040;-74
2021/09/09 08:13:39;;;;;;;8.77;4.80;;;21.60;48.60;;;;;;5053014;28;20370;-74
2021/09/09 08:16:06;;;;;;;7.90;4.75;;;21.70;49.20;;;;;;5053201;28;20496;-75
2021/09/09 08:18:31;;;;;;;7.95;4.80;;;21.70;48.20;;;;;;5053288;28;20025;-75
2021/09/09 08:20:57;;;;;;;8.85;4.90;;;21.70;47.90;;;;;;5053251;28;20036;-74
2021/09/09 08:23:23;;;;;;;6.63;5.13;;;21.70;48.30;;;;;;5052929;28;20027;-74
2021/09/09 08:25:50;;;;;;;5.70;4.68;;;21.70;48.80;;;;;;5052987;28;20029;-75
2021/09/09 08:28:18;;;;;;;6.28;4.70;;;21.70;48.70;;;;;;5053080;28;20091;-75
2021/09/09 08:30:45;;;;;;;7.10;4.57;;;21.70;48.50;;;;;;5052954;28;20033;-75
2021/09/09 08:33:12;;;;;;;6.85;5.03;;;21.70;48.80;;;;;;5052968;28;20441;-75
2021/09/09 08:35:40;;;;;;;9.07;4.55;;;21.70;48.40;;;;;;5052334;28;20156;-76
2021/09/09 08:38:06;;;;;;;8.45;5.00;;;21.70;47.90;;;;;;5052667;28;20060;-76
2021/09/09 08:40:32;;;;;;;5.50;4.70;;;21.80;47.40;;;;;;5052598;28;20056;-76
2021/09/09 08:42:57;;;;;;;7.78;4.63;;;21.90;47.70;;;;;;5052660;28;20109;-76
2021/09/09 08:45:23;;;;;;;12.93;4.70;;;22.00;47.10;;;;;;5052470;28;20075;-76
2021/09/09 08:47:51;;;;;;;13.75;4.82;;;22.10;47.20;;;;;;5052904;28;20033;-75
2021/09/09 08:50:17;;;;;;;8.90;4.40;;;22.10;46.20;;;;;;5053381;28;20036;-76
2021/09/09 08:52:43;;;;;;;7.50;5.05;;;22.10;46.30;;;;;;5054734;28;20498;-75
2021/09/09 08:55:10;;;;;;;10.35;4.80;;;22.10;46.70;;;;;;5056814;28;20036;-76
2021/09/09 08:57:36;;;;;;;6.22;4.25;;;22.10;46.10;;;;;;5056685;28;20035;-76
2021/09/09 09:00:04;;;;;;;6.28;4.65;;;22.20;46.70;;;;;;5056801;28;20025;-76
2021/09/09 09:02:29;;;;;;;6.55;4.40;;;22.30;46.30;;;;;;5055409;28;20025;-76
2021/09/09 09:05:10;;;;;;;8.27;4.88;;;22.50;45.20;;;;;;5056606;28;20461;-76
2021/09/09 09:07:35;;;;;;;8.45;5.03;;;22.60;44.80;;;;;;5056706;28;20451;-76
2021/09/09 09:10:06;;;;;;;7.60;4.63;;;22.50;44.50;;;;;;5056653;28;20060;-77
2021/09/09 09:12:39;;;;;;;8.48;4.45;;;22.50;44.50;;;;;;5056543;28;20024;-76
2021/09/09 09:15:22;;;;;;;8.25;4.47;;;22.50;45.10;;;;;;5056357;28;20025;-77
2021/09/09 09:17:51;;;;;;;5.93;4.22;;;22.50;44.80;;;;;;5056550;28;20032;-76
2021/09/09 09:20:17;;;;;;;12.13;5.05;;;22.50;43.80;;;;;;5056332;28;20031;-76
2021/09/09 09:22:44;;;;;;;7.20;4.68;;;22.60;44.00;;;;;;5056265;28;20104;-76
2021/09/09 09:25:10;;;;;;;5.53;4.40;;;22.80;43.90;;;;;;5056338;28;20028;-76
2021/09/09 09:27:47;;;;;;;8.10;4.38;;;23.00;42.80;;;;;;5056274;28;20024;-76
2021/09/09 09:30:14;;;;;;;7.65;4.65;;;23.40;43.00;;;;;;5055993;28;20032;-76
2021/09/09 09:32:50;;;;;;;8.82;4.55;;;23.70;41.00;;;;;;5056080;28;20029;-75
2021/09/09 09:35:21;;;;;;;6.18;4.85;;;23.90;40.80;;;;;;5055748;28;20044;-76
2021/09/09 09:38:07;;;;;;;8.70;4.80;;;23.80;39.20;;;;;;5056013;28;20385;-76
2021/09/09 09:40:46;;;;;;;7.93;4.53;;;23.60;40.40;;;;;;5055965;28;20021;-76
2021/09/09 09:43:12;;;;;;;10.20;4.93;;;23.30;40.70;;;;;;5055891;28;20017;-77
2021/09/09 09:45:52;;;;;;;7.43;4.70;;;23.20;41.30;;;;;;5055792;28;20050;-75
2021/09/09 09:48:33;;;;;;;8.23;4.63;;;23.20;41.10;;;;;;5055902;28;20029;-77
2021/09/09 09:51:01;;;;;;;8.90;4.85;;;23.20;42.00;;;;;;5058069;28;20033;-76
2021/09/09 09:53:27;;;;;;;8.15;4.88;;;23.20;41.30;;;;;;5065383;28;20024;-77
2021/09/09 09:55:53;;;;;;;6.40;4.40;;;23.20;41.60;;;;;;5056352;28;20035;-76
2021/09/09 09:58:18;;;;;;;5.57;4.25;;;23.20;41.00;;;;;;5055711;28;20100;-76
2021/09/09 10:00:44;;;;;;;7.50;4.75;;;23.30;40.90;;;;;;5054361;28;20111;-75
2021/09/09 10:03:10;;;;;;;8.82;4.30;;;23.30;40.70;;;;;;5055434;28;20028;-76
2021/09/09 10:05:37;;;;;;;6.65;4.90;;;23.10;41.40;;;;;;5054972;28;20037;-76
2021/09/09 10:08:07;;;;;;;6.22;5.13;;;23.10;41.60;;;;;;5055824;28;20074;-76
2021/09/09 10:10:33;;;;;;;6.38;4.45;;;23.10;40.80;;;;;;5055739;28;20037;-76
2021/09/09 10:12:59;;;;;;;8.45;4.47;;;23.10;42.10;;;;;;5058381;28;20028;-76
2021/09/09 10:15:25;;;;;;;6.43;4.45;;;23.00;41.70;;;;;;5060801;28;20021;-76
2021/09/09 10:17:54;;;;;;;7.57;4.95;;;23.00;42.10;;;;;;5059387;28;20021;-76
2021/09/09 10:20:30;;;;;;;5.57;5.07;;;23.10;40.60;;;;;;5058205;28;20079;-76
2021/09/09 10:23:10;;;;;;;10.40;5.15;;;23.40;41.00;;;;;;5055770;28;20104;-76
2021/09/09 10:25:54;;;;;;;7.80;4.68;;;23.40;40.90;;;;;;5055386;28;20017;-76
2021/09/09 10:28:42;;;;;;;7.43;4.88;;;23.50;41.40;;;;;;5055443;28;20020;-76
2021/09/09 10:31:15;;;;;;;7.15;4.45;;;23.70;41.50;;;;;;5055264;28;20041;-76
2021/09/09 10:33:46;;;;;;;7.15;4.47;;;24.00;40.40;;;;;;5055173;28;20431;-76
2021/09/09 10:36:41;;;;;;;4.72;4.32;;;24.10;40.10;;;;;;5055480;28;20063;-76
2021/09/09 10:39:09;;;;;;;6.60;4.97;;;24.20;40.00;;;;;;5055272;28;20499;-76
2021/09/09 10:41:34;;;;;;;6.28;4.57;;;24.10;39.10;;;;;;5055231;28;20028;-75
2021/09/09 10:44:02;;;;;;;6.75;4.55;;;24.10;40.50;;;;;;5055068;28;20409;-76
2021/09/09 10:46:33;;;;;;;8.65;4.88;;;24.30;40.30;;;;;;5054886;28;20018;-75
2021/09/09 10:49:18;;;;;;;8.48;5.35;;;24.30;39.40;;;;;;5054936;28;20029;-76
2021/09/09 10:52:03;;;;;;;8.10;4.72;;;24.50;39.10;;;;;;5054594;28;20029;-75
2021/09/09 10:54:28;;;;;;;7.75;4.85;;;24.40;39.70;;;;;;5054660;28;20052;-75
2021/09/09 10:57:12;;;;;;;5.90;4.72;;;24.50;38.90;;;;;;5054538;28;20052;-75
2021/09/09 10:59:48;;;;;;;6.88;4.38;;;24.80;38.60;;;;;;5054686;28;20060;-75
2021/09/09 11:02:15;;;;;;;5.75;4.75;;;24.80;37.80;;;;;;5054646;28;20017;-76
2021/09/09 11:04:41;;;;;;;5.82;4.60;;;25.10;37.70;;;;;;5054531;28;20065;-75
2021/09/09 11:07:27;;;;;;;4.85;4.32;;;25.40;37.20;;;;;;5054629;28;20025;-76
2021/09/09 11:10:10;;;;;;;7.88;4.65;;;25.50;36.80;;;;;;5054589;28;20448;-75
2021/09/09 11:12:43;;;;;;;8.40;4.30;;;25.50;36.60;;;;;;5053263;28;20045;-75
2021/09/09 11:15:11;;;;;;;5.85;4.82;;;25.30;36.20;;;;;;5054539;28;20104;-75
2021/09/09 11:17:37;;;;;;;6.22;4.45;;;25.40;36.90;;;;;;5053310;28;20122;-76
2021/09/09 11:20:08;;;;;;;6.78;4.93;;;25.30;37.80;;;;;;5055802;28;20421;-76
2021/09/09 11:22:35;;;;;;;7.57;4.90;;;25.20;38.30;;;;;;5054127;28;20104;-75
2021/09/09 11:25:01;;;;;;;8.60;4.63;;;25.20;38.60;;;;;;5054258;28;20386;-75
2021/09/09 11:27:35;;;;;;;7.80;5.32;;;25.00;39.10;;;;;;5054048;28;20028;-75
2021/09/09 11:30:04;;;;;;;6.47;5.13;;;25.00;38.90;;;;;;5054093;28;20574;-76
2021/09/09 11:32:30;;;;;;;7.90;5.10;;;24.90;39.20;;;;;;5053977;28;20051;-76
2021/09/09 11:35:07;;;;;;;10.25;5.07;;;25.10;39.40;;;;;;5053730;28;20473;-76
2021/09/09 11:37:43;;;;;;;7.38;5.13;;;25.40;39.10;;;;;;5053707;28;20116;-76
2021/09/09 11:40:10;;;;;;;9.05;5.50;;;25.60;38.80;;;;;;5054049;28;20039;-76
2021/09/09 11:42:36;;;;;;;8.23;5.25;;;25.90;37.60;;;;;;5053838;28;20465;-76
2021/09/09 11:45:02;;;;;;;12.18;5.57;;;25.80;37.40;;;;;;5052759;28;20021;-76
2021/09/09 11:47:28;;;;;;;6.53;4.95;;;25.90;37.80;;;;;;5053803;28;20400;-77
2021/09/09 11:50:07;;;;;;;5.70;5.03;;;25.90;37.50;;;;;;5053527;28;20096;-76
2021/09/09 11:52:34;;;;;;;6.43;4.97;;;25.70;39.40;;;;;;5053505;28;20048;-76
2021/09/09 11:55:09;;;;;;;8.27;4.80;;;25.80;38.90;;;;;;5053722;28;20096;-76
2021/09/09 11:57:44;;;;;;;8.73;5.75;;;25.70;38.70;;;;;;5053307;28;20580;-76
2021/09/09 12:00:13;;;;;;;6.60;5.07;;;25.70;39.50;;;;;;5053633;28;20032;-77
2021/09/09 12:02:41;;;;;;;6.45;5.20;;;25.70;39.70;;;;;;5068783;28;20361;-76
2021/09/09 12:05:08;;;;;;;6.88;5.38;;;25.60;40.00;;;;;;5053232;28;20025;-76
2021/09/09 12:07:36;;;;;;;6.90;5.45;;;25.40;39.90;;;;;;5053260;28;20494;-76
2021/09/09 12:10:10;;;;;;;11.27;5.50;;;25.60;40.40;;;;;;5053215;28;20422;-76
2021/09/09 12:12:36;;;;;;;6.20;5.20;;;25.70;41.20;;;;;;5053068;28;20039;-75
2021/09/09 12:15:05;;;;;;;8.20;4.30;;;25.70;39.20;;;;;;5053346;28;20025;-76
2021/09/09 12:17:31;;;;;;;5.00;4.50;;;25.70;39.60;;;;;;5053313;28;20040;-75
2021/09/09 12:20:11;;;;;;;7.97;4.65;;;25.90;37.20;;;;;;5053222;28;20377;-77
2021/09/09 12:23:00;;;;;;;9.25;4.70;;;25.80;37.30;;;;;;5053117;28;20021;-77
2021/09/09 12:25:28;;;;;;;5.93;5.07;;;26.20;36.80;;;;;;5053238;28;20100;-77
2021/09/09 12:28:00;;;;;;;10.30;5.47;;;26.10;36.40;;;;;;5053318;28;20180;-76
2021/09/09 12:30:47;;;;;;;6.13;4.65;;;26.00;37.20;;;;;;5053053;28;20025;-76
2021/09/09 12:33:19;;;;;;;7.10;5.40;;;25.60;38.30;;;;;;5053313;28;20055;-76
2021/09/09 12:36:01;;;;;;;7.30;4.95;;;25.50;39.20;;;;;;5053097;28;20057;-76
2021/09/09 12:38:37;;;;;;;6.82;5.30;;;25.60;39.20;;;;;;5052699;28;20489;-75
2021/09/09 12:41:04;;;;;;;10.32;5.18;;;25.70;39.20;;;;;;5052795;28;20021;-75
2021/09/09 12:43:31;;;;;;;5.90;5.28;;;26.00;39.60;;;;;;5052788;28;20028;-74